Time;durP1;ratioP1;P1;durP2;ratioP2;P2;SDS_P1;SDS_P2;PMS_P1;PMS_P2;Temp;Humidity;BMP_temperature;BMP_pressure;BME280_temperature;BME280_humidity;BME280_pressure;Samples;Min_cycle;Max_cycle;Signal;HPM_P1;HPM_P2
2021/06/04 00:04:52;;;;;;;47.95;38.05;;;19.70;99.90;;;;;;10459634;28;20473;-62
2021/06/04 00:09:54;;;;;;;39.35;33.83;;;19.70;99.90;;;;;;10460330;28;20401;-61
2021/06/04 00:14:56;;;;;;;44.85;34.85;;;19.80;99.90;;;;;;10459515;28;20041;-62
2021/06/04 00:19:58;;;;;;;50.38;36.03;;;19.70;99.90;;;;;;10459454;28;20045;-63
2021/06/04 00:25:00;;;;;;;47.25;34.75;;;19.70;99.90;;;;;;10459038;28;20071;-62
2021/06/04 00:30:06;;;;;;;56.10;41.97;;;19.60;99.90;;;;;;10459147;28;20041;-62
2021/06/04 00:35:11;;;;;;;49.75;38.20;;;19.50;99.90;;;;;;10457453;28;20060;-62
2021/06/04 00:40:32;;;;;;;44.13;35.47;;;19.60;99.90;;;;;;10458864;28;20045;-62
2021/06/04 00:45:41;;;;;;;65.10;43.60;;;19.50;99.90;;;;;;10458572;28;20125;-61
2021/06/04 00:51:12;;;;;;;58.20;42.88;;;19.60;99.90;;;;;;10458400;28;20460;-62
2021/06/04 00:56:14;;;;;;;54.15;40.38;;;19.50;99.90;;;;;;10458245;28;20049;-62
2021/06/04 01:01:22;;;;;;;60.65;43.90;;;19.60;99.90;;;;;;10456898;28;20048;-62
2021/06/04 01:06:56;;;;;;;63.58;46.20;;;19.60;99.90;;;;;;10457927;28;20057;-61
2021/06/04 01:12:18;;;;;;;55.33;43.60;;;19.60;99.90;;;;;;10455366;28;20049;-61
2021/06/04 01:17:42;;;;;;;100.47;59.35;;;19.50;99.90;;;;;;10456185;28;20140;-62
2021/06/04 01:23:15;;;;;;;66.85;50.40;;;19.50;99.90;;;;;;10457366;28;20051;-62
2021/06/04 01:28:32;;;;;;;59.13;43.72;;;19.50;99.90;;;;;;10455994;28;20052;-63
2021/06/04 01:33:54;;;;;;;62.17;45.28;;;19.50;99.90;;;;;;10456562;28;20041;-62
2021/06/04 01:39:03;;;;;;;53.92;41.85;;;19.50;99.90;;;;;;10439277;28;20056;-62
2021/06/04 01:44:16;;;;;;;54.63;41.95;;;19.40;99.90;;;;;;10457089;28;20045;-62
2021/06/04 01:49:26;;;;;;;92.53;58.28;;;19.40;99.90;;;;;;10455439;28;20045;-62
2021/06/04 01:54:40;;;;;;;57.08;43.85;;;19.30;99.90;;;;;;10455126;28;20041;-61
2021/06/04 01:59:46;;;;;;;61.55;45.60;;;19.30;99.90;;;;;;10455260;28;20485;-62
2021/06/04 02:04:53;;;;;;;64.70;46.10;;;19.30;99.90;;;;;;10455216;28;20052;-62
2021/06/04 02:09:57;;;;;;;66.97;47.60;;;19.20;99.90;;;;;;10455028;28;20044;-63
2021/06/04 02:15:17;;;;;;;79.80;50.40;;;19.20;99.90;;;;;;10456179;28;20041;-63
2021/06/04 02:20:35;;;;;;;62.72;46.88;;;19.10;99.90;;;;;;10456109;28;20041;-62
2021/06/04 02:25:53;;;;;;;72.45;48.38;;;19.10;99.90;;;;;;10454963;28;20040;-62
2021/06/04 02:31:05;;;;;;;66.45;48.83;;;19.00;99.90;;;;;;10455933;28;20056;-62
2021/06/04 02:36:15;;;;;;;60.05;45.58;;;19.00;99.90;;;;;;10456224;28;20053;-62
2021/06/04 02:41:27;;;;;;;69.55;49.80;;;18.80;99.90;;;;;;10454532;28;20051;-62
2021/06/04 02:46:57;;;;;;;74.40;47.33;;;18.70;99.90;;;;;;10461517;28;20384;-61
2021/06/04 02:52:10;;;;;;;54.80;43.03;;;18.70;99.90;;;;;;10458141;28;20045;-63
2021/06/04 02:57:17;;;;;;;68.63;46.72;;;18.70;99.90;;;;;;10461471;28;20386;-62
2021/06/04 03:02:32;;;;;;;87.10;48.67;;;18.60;99.90;;;;;;10462716;28;20040;-62
2021/06/04 03:07:39;;;;;;;64.63;46.53;;;18.60;99.90;;;;;;10462555;28;20426;-62
2021/06/04 03:12:45;;;;;;;140.27;60.80;;;18.50;99.90;;;;;;10462385;28;20052;-63
2021/06/04 03:17:47;;;;;;;77.95;49.70;;;18.50;99.90;;;;;;10462399;28;20060;-62
2021/06/04 03:22:49;;;;;;;57.53;41.65;;;18.40;99.90;;;;;;10461933;28;20056;-63
2021/06/04 03:27:52;;;;;;;58.78;41.42;;;18.40;99.90;;;;;;10460131;28;20041;-62
2021/06/04 03:32:55;;;;;;;66.60;46.53;;;18.30;99.90;;;;;;10461446;28;20469;-63
2021/06/04 03:37:59;;;;;;;66.80;43.25;;;18.40;99.90;;;;;;10461347;28;20051;-62
2021/06/04 03:43:05;;;;;;;81.30;49.88;;;18.30;99.90;;;;;;10461004;28;20473;-63
2021/06/04 03:48:12;;;;;;;78.50;46.40;;;18.30;99.90;;;;;;10460687;28;20056;-63
2021/06/04 03:53:15;;;;;;;77.65;48.40;;;18.30;99.90;;;;;;10460971;28;20040;-62
2021/06/04 03:58:17;;;;;;;77.15;49.08;;;18.30;99.90;;;;;;10460009;28;20045;-62
2021/06/04 04:03:23;;;;;;;89.88;53.95;;;18.20;99.90;;;;;;10460631;28;20052;-62
2021/06/04 04:08:28;;;;;;;73.20;45.72;;;18.10;99.90;;;;;;10459933;28;20056;-62
2021/06/04 04:13:30;;;;;;;73.07;47.75;;;18.30;99.90;;;;;;10459684;28;20393;-62
2021/06/04 04:18:32;;;;;;;69.97;46.30;;;18.20;99.90;;;;;;10459977;28;20052;-62
2021/06/04 04:23:43;;;;;;;86.95;52.88;;;18.10;99.90;;;;;;10459398;28;20040;-62
2021/06/04 04:28:48;;;;;;;79.13;49.47;;;18.10;99.90;;;;;;10459160;28;20044;-61
2021/06/04 04:33:51;;;;;;;77.70;48.13;;;18.10;99.90;;;;;;10458973;28;20075;-62
2021/06/04 04:38:54;;;;;;;74.32;47.42;;;18.20;99.90;;;;;;10458914;28;20055;-62
2021/06/04 04:43:56;;;;;;;80.10;48.80;;;18.00;99.90;;;;;;10458425;28;20404;-62
2021/06/04 04:48:59;;;;;;;69.93;44.50;;;18.10;99.90;;;;;;10459131;28;20045;-61
2021/06/04 04:54:03;;;;;;;56.50;39.97;;;18.10;99.90;;;;;;10458030;28;20044;-62
2021/06/04 04:59:08;;;;;;;54.53;38.88;;;18.10;99.90;;;;;;10458532;28;20061;-62
2021/06/04 05:04:10;;;;;;;54.60;40.45;;;18.20;99.90;;;;;;10458243;28;20052;-62
2021/06/04 05:09:12;;;;;;;63.47;42.65;;;18.20;99.90;;;;;;10457364;28;20057;-62
2021/06/04 05:14:15;;;;;;;49.10;37.55;;;18.20;99.90;;;;;;10457325;28;20507;-62
2021/06/04 05:19:17;;;;;;;56.83;39.72;;;18.30;99.90;;;;;;10457480;28;20045;-61
2021/06/04 05:24:21;;;;;;;71.88;47.13;;;18.30;99.90;;;;;;10457566;28;20045;-62
2021/06/04 05:29:23;;;;;;;65.57;46.15;;;18.20;99.90;;;;;;10457315;28;20048;-61
2021/06/04 05:34:25;;;;;;;72.75;48.83;;;18.30;99.90;;;;;;10456848;28;20056;-62
2021/06/04 05:39:28;;;;;;;78.07;51.30;;;18.30;99.90;;;;;;10457032;28;20041;-62
2021/06/04 05:44:32;;;;;;;81.75;54.50;;;18.30;99.90;;;;;;10456520;28;20047;-61
2021/06/04 05:49:35;;;;;;;75.93;53.67;;;18.40;99.90;;;;;;10456630;28;20060;-61
2021/06/04 05:54:41;;;;;;;74.70;54.00;;;18.50;99.90;;;;;;10456230;28;20045;-62
2021/06/04 05:59:44;;;;;;;73.13;53.10;;;18.50;99.90;;;;;;10456628;28;20049;-62
2021/06/04 06:04:46;;;;;;;72.68;50.13;;;18.50;99.90;;;;;;10456472;28;20048;-61
2021/06/04 06:09:47;;;;;;;62.42;45.55;;;18.60;99.90;;;;;;10456279;28;20056;-62
2021/06/04 06:14:49;;;;;;;66.18;47.03;;;18.50;99.90;;;;;;10456285;28;20044;-62
2021/06/04 06:19:51;;;;;;;70.90;45.47;;;18.60;99.90;;;;;;10461313;28;20049;-62
2021/06/04 06:24:53;;;;;;;71.28;44.28;;;18.60;99.90;;;;;;10464290;28;20052;-62
2021/06/04 06:29:55;;;;;;;60.40;44.67;;;18.60;99.90;;;;;;10464126;28;20045;-62
2021/06/04 06:34:57;;;;;;;67.65;46.88;;;18.70;99.90;;;;;;10462346;28;20041;-62
2021/06/04 06:39:59;;;;;;;51.92;37.83;;;18.80;99.90;;;;;;10463721;28;20044;-62
2021/06/04 06:45:02;;;;;;;66.18;45.53;;;18.80;99.90;;;;;;10463308;28;20049;-62
2021/06/04 06:50:11;;;;;;;69.28;46.05;;;18.90;99.90;;;;;;10463516;28;20087;-62
2021/06/04 06:55:14;;;;;;;67.28;46.75;;;18.90;99.90;;;;;;10463098;28;20048;-62
2021/06/04 07:00:25;;;;;;;69.88;49.65;;;19.10;99.90;;;;;;10462602;28;20499;-62
2021/06/04 07:05:28;;;;;;;56.65;42.13;;;19.20;99.90;;;;;;10462434;28;20049;-62
2021/06/04 07:10:33;;;;;;;61.80;44.88;;;19.40;99.90;;;;;;10462494;28;20063;-62
2021/06/04 07:15:36;;;;;;;56.88;42.67;;;19.50;99.90;;;;;;10462330;28;20060;-62
2021/06/04 07:20:39;;;;;;;60.85;43.47;;;19.60;99.90;;;;;;10462318;28;20049;-62
2021/06/04 07:25:45;;;;;;;59.35;43.75;;;19.70;99.90;;;;;;10461609;28;20044;-62
2021/06/04 07:30:51;;;;;;;54.15;41.20;;;19.80;99.90;;;;;;10460160;28;20400;-62
2021/06/04 07:35:55;;;;;;;51.33;40.40;;;19.90;99.90;;;;;;10461145;28;20389;-62
2021/06/04 07:40:59;;;;;;;54.80;40.45;;;20.10;99.90;;;;;;10461057;28;20076;-62
2021/06/04 07:46:05;;;;;;;51.83;38.28;;;20.20;99.90;;;;;;10460740;28;20492;-62
2021/06/04 07:51:14;;;;;;;49.45;36.95;;;20.20;99.90;;;;;;10460890;28;20048;-62
2021/06/04 07:56:18;;;;;;;51.60;38.75;;;20.30;99.90;;;;;;10460377;28;20488;-62
2021/06/04 08:01:21;;;;;;;46.30;33.97;;;20.40;99.90;;;;;;10460569;28;20049;-62
2021/06/04 08:06:23;;;;;;;45.30;36.17;;;20.50;99.90;;;;;;10459963;28;20107;-62
2021/06/04 08:11:57;;;;;;;49.47;36.92;;;20.80;99.90;;;;;;10460184;28;20049;-62
2021/06/04 08:17:00;;;;;;;49.15;36.65;;;20.90;99.90;;;;;;10459442;28;20428;-62
2021/06/04 08:22:07;;;;;;;44.90;38.40;;;21.00;99.90;;;;;;10460159;28;20045;-62
2021/06/04 08:27:10;;;;;;;45.70;36.10;;;21.10;99.90;;;;;;10457927;28;20473;-62
2021/06/04 08:32:12;;;;;;;50.53;39.47;;;21.40;99.90;;;;;;10459097;28;20500;-63
2021/06/04 08:37:14;;;;;;;44.42;38.13;;;21.50;99.90;;;;;;10459081;28;20044;-62
2021/06/04 08:42:52;;;;;;;44.33;37.75;;;21.50;99.90;;;;;;10459118;28;20045;-62
2021/06/04 08:48:32;;;;;;;46.42;35.78;;;21.60;99.90;;;;;;10458413;28;20037;-62
2021/06/04 08:53:54;;;;;;;42.42;34.15;;;21.80;99.90;;;;;;10458412;28;20060;-62
2021/06/04 08:58:58;;;;;;;38.83;34.42;;;22.60;99.90;;;;;;10458078;28;20404;-62
2021/06/04 09:04:20;;;;;;;38.28;32.45;;;23.00;99.90;;;;;;10456467;28;20405;-62
2021/06/04 09:09:27;;;;;;;31.50;28.13;;;23.00;99.90;;;;;;10457725;28;20049;-62
2021/06/04 09:14:29;;;;;;;29.73;24.58;;;23.00;99.90;;;;;;10457566;28;20037;-63
2021/06/04 09:19:53;;;;;;;31.80;27.73;;;23.20;99.90;;;;;;10457697;28;20048;-62
2021/06/04 09:24:55;;;;;;;32.17;27.65;;;23.30;99.90;;;;;;10455870;28;20056;-62
2021/06/04 09:30:14;;;;;;;31.27;25.77;;;23.50;99.90;;;;;;10439784;28;20041;-62
2021/06/04 09:35:19;;;;;;;25.77;22.48;;;23.50;99.90;;;;;;10456959;28;20049;-63
2021/06/04 09:40:30;;;;;;;27.25;20.63;;;23.70;99.90;;;;;;10457738;28;20050;-62
2021/06/04 09:45:42;;;;;;;24.15;20.52;;;23.80;99.90;;;;;;10457162;28;20048;-63
2021/06/04 09:50:47;;;;;;;30.63;22.10;;;23.90;99.90;;;;;;10456684;28;20044;-63
2021/06/04 09:56:07;;;;;;;25.88;22.30;;;24.20;99.90;;;;;;10455533;28;20476;-63
2021/06/04 10:01:10;;;;;;;23.27;20.03;;;24.50;99.90;;;;;;10456207;28;20514;-63
2021/06/04 10:06:30;;;;;;;19.88;16.38;;;25.00;99.90;;;;;;10454924;28;20048;-63
2021/06/04 10:11:49;;;;;;;16.52;14.57;;;25.50;99.90;;;;;;10455168;28;20381;-63
2021/06/04 10:17:15;;;;;;;13.57;12.20;;;25.60;99.90;;;;;;10456839;28;20053;-63
2021/06/04 10:22:39;;;;;;;18.40;15.20;;;25.80;99.90;;;;;;10456381;28;20041;-63
2021/06/04 10:27:48;;;;;;;17.00;14.15;;;25.70;99.90;;;;;;10454580;28;20045;-63
2021/06/04 10:33:11;;;;;;;19.88;15.43;;;26.30;99.90;;;;;;10456337;28;20393;-63
2021/06/04 10:38:26;;;;;;;15.68;12.57;;;26.60;99.90;;;;;;10454546;28;20060;-63
2021/06/04 10:44:10;;;;;;;18.63;13.73;;;26.90;99.90;;;;;;10454673;28;20052;-62
2021/06/04 10:49:52;;;;;;;19.33;16.63;;;27.00;99.90;;;;;;10455214;28;20389;-63
2021/06/04 10:55:16;;;;;;;16.60;12.90;;;27.40;99.90;;;;;;10455420;28;20358;-62
2021/06/04 11:00:28;;;;;;;17.15;15.40;;;27.70;99.90;;;;;;10454567;28;20369;-62
2021/06/04 11:05:43;;;;;;;16.55;12.85;;;28.10;99.90;;;;;;10458005;28;20057;-62
2021/06/04 11:11:18;;;;;;;17.27;12.43;;;28.30;99.90;;;;;;10444972;28;20052;-62
2021/06/04 11:16:55;;;;;;;10.23;9.23;;;28.00;99.40;;;;;;10462080;28;20366;-62
2021/06/04 11:22:04;;;;;;;15.48;13.80;;;28.20;99.70;;;;;;10462072;28;20052;-62
2021/06/04 11:27:10;;;;;;;9.35;8.45;;;28.30;98.40;;;;;;10461261;28;20048;-62
2021/06/04 11:32:39;;;;;;;13.35;10.88;;;28.50;99.90;;;;;;10460710;28;20037;-62
2021/06/04 11:37:57;;;;;;;12.27;9.18;;;28.70;99.60;;;;;;10460637;28;20053;-62
2021/06/04 11:43:18;;;;;;;9.13;6.82;;;28.30;96.60;;;;;;10460041;28;20076;-62
2021/06/04 11:48:26;;;;;;;9.00;8.20;;;29.20;99.90;;;;;;10460070;28;20045;-63
2021/06/04 11:53:34;;;;;;;9.52;7.55;;;29.50;95.10;;;;;;10460966;28;20052;-63
2021/06/04 11:58:45;;;;;;;9.93;7.80;;;29.30;95.40;;;;;;10460909;28;20045;-63
2021/06/04 12:04:01;;;;;;;11.23;8.30;;;29.60;96.20;;;;;;10460520;28;20049;-64
2021/06/04 12:09:41;;;;;;;10.90;7.13;;;29.70;94.20;;;;;;10460836;28;20041;-63
2021/06/04 12:15:03;;;;;;;10.37;9.33;;;29.60;96.90;;;;;;10459336;28;20496;-63
2021/06/04 12:20:29;;;;;;;12.27;8.45;;;30.00;95.20;;;;;;10459613;28;20049;-63
2021/06/04 12:25:45;;;;;;;13.77;12.13;;;30.60;95.50;;;;;;10459952;28;20045;-63
2021/06/04 12:30:55;;;;;;;11.63;9.40;;;30.50;94.40;;;;;;10459376;28;20041;-63
2021/06/04 12:35:58;;;;;;;9.80;8.77;;;30.80;93.90;;;;;;10459679;28;20155;-63
2021/06/04 12:41:07;;;;;;;9.48;6.35;;;31.00;92.70;;;;;;10458951;28;20051;-63
2021/06/04 12:46:23;;;;;;;10.07;7.50;;;30.20;92.10;;;;;;10457928;28;20045;-64
2021/06/04 12:51:25;;;;;;;9.88;8.88;;;30.50;90.40;;;;;;10458520;28;20040;-63
2021/06/04 12:56:27;;;;;;;6.05;5.03;;;30.60;91.70;;;;;;10458277;28;20052;-64
2021/06/04 13:01:32;;;;;;;7.18;5.32;;;30.70;87.20;;;;;;10458477;28;20045;-62
2021/06/04 13:06:41;;;;;;;5.35;3.83;;;30.30;91.30;;;;;;10457731;28;20114;-63
2021/06/04 13:11:46;;;;;;;4.60;4.10;;;30.90;88.80;;;;;;10457756;28;20498;-63
2021/06/04 13:16:49;;;;;;;5.30;4.35;;;30.70;85.00;;;;;;10457566;28;20041;-63
2021/06/04 13:21:52;;;;;;;5.82;5.22;;;31.10;87.70;;;;;;10457405;28;20474;-62
2021/06/04 13:26:55;;;;;;;8.65;5.72;;;30.70;83.60;;;;;;10456129;28;20048;-62
2021/06/04 13:32:08;;;;;;;6.75;4.82;;;30.50;83.50;;;;;;10457951;28;20048;-63
2021/06/04 13:37:14;;;;;;;5.75;4.75;;;30.30;87.90;;;;;;10455870;28;20052;-63
2021/06/04 13:42:28;;;;;;;5.82;4.03;;;31.00;87.80;;;;;;10455664;28;20515;-63
2021/06/04 13:47:50;;;;;;;5.07;4.57;;;30.40;85.50;;;;;;10455299;28;20037;-63
2021/06/04 13:53:08;;;;;;;6.97;5.35;;;30.50;84.00;;;;;;10455547;28;20500;-64
2021/06/04 13:58:26;;;;;;;8.20;7.35;;;30.40;81.10;;;;;;10456647;28;20052;-64
2021/06/04 14:03:29;;;;;;;6.38;5.60;;;30.20;82.00;;;;;;10456827;28;20076;-63
2021/06/04 14:08:32;;;;;;;7.07;5.20;;;30.50;81.90;;;;;;10456133;28;20053;-64
2021/06/04 14:13:46;;;;;;;5.60;4.78;;;30.70;82.60;;;;;;10456423;28;20045;-63
2021/06/04 14:18:51;;;;;;;7.43;4.80;;;31.20;82.20;;;;;;10456148;28;20060;-64
2021/06/04 14:24:08;;;;;;;8.43;6.07;;;30.50;84.00;;;;;;10456825;28;20123;-64
2021/06/04 14:29:38;;;;;;;6.32;5.07;;;30.70;81.20;;;;;;10456041;28;20052;-63
2021/06/04 14:34:44;;;;;;;7.32;5.55;;;30.80;83.80;;;;;;10455750;28;20052;-63
2021/06/04 14:39:50;;;;;;;7.03;5.35;;;30.50;79.20;;;;;;10457888;28;20053;-63
2021/06/04 14:44:52;;;;;;;7.40;5.07;;;30.00;80.50;;;;;;10463748;28;20045;-63
2021/06/04 14:49:54;;;;;;;6.28;4.90;;;30.40;74.80;;;;;;10462265;28;20041;-64
2021/06/04 14:54:56;;;;;;;8.32;5.10;;;30.40;80.20;;;;;;10463009;28;20045;-63
2021/06/04 15:00:01;;;;;;;8.63;4.82;;;30.30;80.90;;;;;;10463436;28;20048;-65
2021/06/04 15:05:07;;;;;;;5.70;4.43;;;30.40;82.60;;;;;;10462600;28;20044;-63
2021/06/04 15:10:12;;;;;;;5.05;4.45;;;30.30;79.80;;;;;;10462412;28;20075;-64
2021/06/04 15:15:21;;;;;;;6.43;4.50;;;30.50;84.10;;;;;;10462169;28;20591;-64
2021/06/04 15:20:28;;;;;;;5.53;4.55;;;30.20;80.30;;;;;;10462811;28;20052;-63
2021/06/04 15:25:35;;;;;;;6.10;5.28;;;30.40;82.00;;;;;;10461741;28;20044;-65
2021/06/04 15:30:37;;;;;;;5.78;4.30;;;29.90;84.70;;;;;;10462259;28;20052;-64
2021/06/04 15:35:40;;;;;;;7.93;6.15;;;30.20;82.10;;;;;;10461465;28;20049;-63
2021/06/04 15:40:44;;;;;;;5.15;4.72;;;29.70;78.10;;;;;;10460155;28;20045;-63
2021/06/04 15:45:48;;;;;;;8.43;5.95;;;29.60;84.30;;;;;;10461167;28;20041;-63
2021/06/04 15:50:51;;;;;;;8.30;6.43;;;29.70;84.10;;;;;;10458847;28;20048;-66
2021/06/04 15:55:56;;;;;;;6.10;5.50;;;29.60;80.30;;;;;;10461285;28;20048;-63
2021/06/04 16:00:58;;;;;;;8.43;6.15;;;29.40;86.60;;;;;;10460655;28;20194;-65
2021/06/04 16:06:05;;;;;;;6.45;5.85;;;29.70;85.70;;;;;;10459879;28;20397;-64
2021/06/04 16:11:07;;;;;;;9.70;6.40;;;29.30;86.30;;;;;;10460082;28;20052;-63
2021/06/04 16:16:11;;;;;;;9.00;5.13;;;29.20;86.70;;;;;;10460127;28;20047;-63
2021/06/04 16:21:15;;;;;;;9.35;5.75;;;29.20;86.50;;;;;;10460195;28;20049;-62
2021/06/04 16:26:23;;;;;;;6.97;4.38;;;29.10;85.20;;;;;;10459402;28;20045;-64
2021/06/04 16:31:28;;;;;;;7.88;5.13;;;29.00;85.80;;;;;;10459393;28;20040;-63
2021/06/04 16:36:30;;;;;;;6.28;5.68;;;28.80;86.20;;;;;;10459159;28;20045;-63
2021/06/04 16:41:33;;;;;;;6.43;5.18;;;28.70;88.90;;;;;;10458934;28;20481;-63
2021/06/04 16:46:35;;;;;;;6.60;5.75;;;28.60;88.50;;;;;;10458548;28;20046;-62
2021/06/04 16:51:37;;;;;;;10.32;5.93;;;28.40;90.20;;;;;;10458445;28;20515;-63
2021/06/04 16:56:41;;;;;;;9.27;5.13;;;28.20;90.10;;;;;;10458337;28;20044;-63
2021/06/04 17:01:46;;;;;;;6.38;4.72;;;28.00;90.90;;;;;;10458013;28;20470;-64
2021/06/04 17:06:50;;;;;;;7.38;4.55;;;28.00;90.90;;;;;;10458292;28;20136;-63
2021/06/04 17:11:52;;;;;;;10.00;5.35;;;27.70;91.40;;;;;;10457665;28;20495;-64
2021/06/04 17:16:54;;;;;;;10.65;5.28;;;27.60;92.30;;;;;;10457665;28;20045;-64
2021/06/04 17:21:57;;;;;;;7.75;4.88;;;27.40;92.40;;;;;;10456627;28;20057;-63
2021/06/04 17:26:59;;;;;;;7.95;5.18;;;27.40;92.70;;;;;;10457284;28;20041;-64
2021/06/04 17:32:01;;;;;;;8.45;5.10;;;27.30;92.90;;;;;;10457561;28;20051;-64
2021/06/04 17:37:03;;;;;;;7.47;5.55;;;27.00;93.50;;;;;;10456817;28;20052;-63
2021/06/04 17:42:06;;;;;;;9.20;5.20;;;26.80;94.10;;;;;;10457261;28;20049;-64
2021/06/04 17:47:09;;;;;;;8.55;6.05;;;26.60;94.90;;;;;;10457003;28;20044;-64
2021/06/04 17:52:23;;;;;;;7.88;5.78;;;26.50;95.40;;;;;;10455331;28;20044;-63
2021/06/04 17:57:26;;;;;;;6.93;5.35;;;26.40;95.30;;;;;;10456567;28;20048;-62
2021/06/04 18:02:28;;;;;;;8.88;5.60;;;26.20;95.40;;;;;;10456559;28;20041;-64
2021/06/04 18:07:30;;;;;;;5.75;5.15;;;26.10;96.50;;;;;;10456487;28;20077;-64
2021/06/04 18:12:32;;;;;;;8.15;5.93;;;25.80;96.80;;;;;;10455203;28;20041;-63
2021/06/04 18:17:34;;;;;;;8.80;6.30;;;25.80;97.30;;;;;;10464160;28;20469;-62
2021/06/04 18:22:37;;;;;;;9.27;6.75;;;25.30;95.30;;;;;;10463305;28;20045;-64
2021/06/04 18:27:44;;;;;;;7.97;6.00;;;25.40;94.80;;;;;;10464291;28;20067;-63
2021/06/04 18:32:46;;;;;;;12.50;6.97;;;25.10;95.30;;;;;;10464064;28;20488;-63
2021/06/04 18:37:51;;;;;;;7.30;6.65;;;24.80;95.30;;;;;;10463901;28;20052;-63
2021/06/04 18:42:54;;;;;;;9.07;7.35;;;24.70;96.10;;;;;;10464032;28;20044;-63
2021/06/04 18:47:57;;;;;;;8.73;7.68;;;24.30;96.50;;;;;;10463232;28;20176;-64
2021/06/04 18:53:02;;;;;;;14.15;8.32;;;24.20;96.50;;;;;;10463374;28;20060;-63
2021/06/04 18:58:07;;;;;;;10.60;8.48;;;23.90;97.70;;;;;;10463022;28;20071;-62
2021/06/04 19:03:13;;;;;;;11.90;9.27;;;23.90;97.60;;;;;;10464097;28;20045;-62
2021/06/04 19:08:15;;;;;;;14.82;11.05;;;23.80;99.10;;;;;;10463279;28;20053;-62
2021/06/04 19:13:20;;;;;;;20.40;14.65;;;23.50;99.90;;;;;;10462566;28;20045;-62
2021/06/04 19:18:23;;;;;;;18.27;16.20;;;23.40;99.90;;;;;;10462599;28;20045;-63
2021/06/04 19:23:26;;;;;;;19.55;14.40;;;23.20;99.90;;;;;;10460912;28;20355;-63
2021/06/04 19:28:29;;;;;;;19.35;13.32;;;23.30;99.90;;;;;;10462348;28;20037;-62
2021/06/04 19:33:40;;;;;;;26.17;14.57;;;23.40;99.90;;;;;;10461602;28;20048;-62
2021/06/04 19:38:44;;;;;;;24.40;16.98;;;23.50;99.90;;;;;;10460328;28;20396;-62
2021/06/04 19:43:49;;;;;;;18.45;15.95;;;23.50;99.90;;;;;;10461386;28;20041;-62
2021/06/04 19:48:52;;;;;;;23.75;17.90;;;23.30;99.90;;;;;;10461470;28;20052;-62
2021/06/04 19:53:54;;;;;;;23.27;17.55;;;23.30;99.90;;;;;;10461015;28;20044;-62
2021/06/04 19:58:56;;;;;;;22.95;19.15;;;22.90;99.90;;;;;;10460830;28;20048;-62
2021/06/04 20:03:59;;;;;;;18.67;15.60;;;21.80;99.90;;;;;;10460547;28;20061;-62
2021/06/04 20:09:03;;;;;;;21.00;16.92;;;21.50;99.90;;;;;;10460614;28;20059;-62
2021/06/04 20:14:08;;;;;;;18.20;13.75;;;21.60;99.90;;;;;;10460268;28;20037;-62
2021/06/04 20:19:13;;;;;;;14.05;12.50;;;21.60;99.90;;;;;;10458820;28;20393;-62
2021/06/04 20:24:16;;;;;;;22.63;16.52;;;21.50;99.90;;;;;;10460032;28;20053;-62
2021/06/04 20:29:17;;;;;;;21.05;16.13;;;21.50;99.90;;;;;;10459484;28;20496;-62
2021/06/04 20:34:21;;;;;;;17.23;13.00;;;21.60;99.90;;;;;;10459358;28;20041;-62
2021/06/04 20:39:24;;;;;;;17.77;13.23;;;21.50;99.90;;;;;;10459051;28;20051;-62
2021/06/04 20:44:26;;;;;;;14.05;12.10;;;21.70;99.90;;;;;;10458817;28;20045;-62
2021/06/04 20:49:28;;;;;;;13.88;12.20;;;21.60;99.90;;;;;;10459453;28;20041;-62
2021/06/04 20:54:30;;;;;;;21.15;17.52;;;21.70;99.90;;;;;;10458313;28;20055;-62
2021/06/04 20:59:32;;;;;;;20.40;15.05;;;21.60;99.90;;;;;;10458304;28;20049;-62
2021/06/04 21:04:35;;;;;;;18.15;15.95;;;21.70;99.90;;;;;;10458374;28;20124;-62
2021/06/04 21:09:37;;;;;;;17.92;16.05;;;21.70;99.90;;;;;;10458060;28;20060;-61
2021/06/04 21:14:39;;;;;;;16.88;11.85;;;21.60;99.90;;;;;;10458353;28;20049;-62
2021/06/04 21:19:41;;;;;;;12.15;10.80;;;21.60;99.90;;;;;;10457641;28;20051;-62
2021/06/04 21:24:43;;;;;;;19.13;15.55;;;21.60;99.90;;;;;;10456155;28;20508;-62
2021/06/04 21:29:45;;;;;;;20.40;16.40;;;21.50;99.90;;;;;;10457241;28;20495;-62
2021/06/04 21:34:51;;;;;;;17.13;15.18;;;21.60;99.90;;;;;;10456926;28;20056;-62
2021/06/04 21:39:52;;;;;;;17.55;15.18;;;21.40;99.90;;;;;;10457051;28;20503;-62
2021/06/04 21:44:55;;;;;;;15.70;14.00;;;21.30;99.90;;;;;;10456827;28;20047;-62
2021/06/04 21:49:56;;;;;;;20.58;16.90;;;21.40;99.90;;;;;;10455801;28;20469;-62
2021/06/04 21:54:59;;;;;;;17.88;15.98;;;21.40;99.90;;;;;;10456586;28;20047;-62
2021/06/04 22:00:09;;;;;;;24.63;20.90;;;21.40;99.90;;;;;;10456961;28;20045;-62
2021/06/04 22:05:11;;;;;;;22.65;18.30;;;21.30;99.90;;;;;;10456297;28;20056;-62
2021/06/04 22:10:14;;;;;;;19.90;16.33;;;21.20;99.90;;;;;;10454877;28;20049;-62
2021/06/04 22:15:17;;;;;;;19.63;17.58;;;21.30;99.90;;;;;;10456827;28;20045;-62
2021/06/04 22:20:21;;;;;;;23.27;18.38;;;21.20;99.90;;;;;;10456188;28;20491;-62
2021/06/04 22:25:30;;;;;;;22.30;20.10;;;21.10;99.90;;;;;;10455991;28;20041;-62
2021/06/04 22:30:32;;;;;;;19.70;17.63;;;21.10;99.90;;;;;;10456129;28;20045;-62
2021/06/04 22:35:34;;;;;;;22.95;19.17;;;21.10;99.90;;;;;;10455635;28;20128;-62
2021/06/04 22:40:37;;;;;;;20.52;17.55;;;20.90;99.90;;;;;;10455857;28;20556;-62
2021/06/04 22:45:41;;;;;;;23.67;17.90;;;21.00;99.90;;;;;;10455607;28;20040;-63
2021/06/04 22:50:45;;;;;;;14.00;12.57;;;21.10;99.90;;;;;;10455730;28;20127;-62
2021/06/04 22:55:52;;;;;;;23.60;20.42;;;21.20;99.90;;;;;;10455221;28;20052;-62
2021/06/04 23:00:57;;;;;;;22.30;19.95;;;21.10;99.90;;;;;;10459371;28;20045;-62
2021/06/04 23:06:02;;;;;;;21.55;19.30;;;21.00;99.90;;;;;;10462809;28;20057;-62
2021/06/04 23:11:05;;;;;;;22.25;20.00;;;21.00;99.90;;;;;;10463489;28;20048;-62
2021/06/04 23:16:07;;;;;;;21.58;19.20;;;21.00;99.90;;;;;;10462582;28;20044;-61
2021/06/04 23:21:10;;;;;;;28.10;22.65;;;21.00;99.90;;;;;;10462924;28;20041;-62
2021/06/04 23:26:18;;;;;;;22.38;20.17;;;21.10;99.90;;;;;;10461925;28;20495;-61
2021/06/04 23:31:20;;;;;;;24.92;21.55;;;21.10;99.90;;;;;;10460702;28;20060;-62
2021/06/04 23:36:28;;;;;;;28.77;24.90;;;21.10;99.90;;;;;;10461854;28;20094;-62
2021/06/04 23:41:31;;;;;;;27.67;24.30;;;21.00;99.90;;;;;;10461566;28;20044;-62
2021/06/04 23:46:36;;;;;;;27.17;21.88;;;20.90;99.90;;;;;;10461813;28;20108;-62
2021/06/04 23:51:38;;;;;;;25.20;22.60;;;20.80;99.90;;;;;;10461508;28;20068;-62
2021/06/04 23:56:41;;;;;;;25.20;22.38;;;20.90;99.90;;;;;;10460590;28;20044;-62
